Time;durP1;ratioP1;P1;durP2;ratioP2;P2;SDS_P1;SDS_P2;PMS_P1;PMS_P2;Temp;Humidity;BMP_temperature;BMP_pressure;BME280_temperature;BME280_humidity;BME280_pressure;Samples;Min_cycle;Max_cycle;Signal;HPM_P1;HPM_P2
2020/12/27 00:03:14;;;;;;;5.57;4.93;;;2.70;91.50;;;;;;10275393;28;20262;-83
2020/12/27 00:08:17;;;;;;;5.13;4.07;;;2.70;90.60;;;;;;10258900;28;20639;-83
2020/12/27 00:13:18;;;;;;;4.90;4.50;;;2.60;90.60;;;;;;10274399;28;20302;-83
2020/12/27 00:18:20;;;;;;;4.83;4.43;;;2.60;91.40;;;;;;10259674;28;20311;-83
2020/12/27 00:23:24;;;;;;;5.20;4.70;;;2.50;90.70;;;;;;10274356;28;20667;-83
2020/12/27 00:28:27;;;;;;;4.50;4.10;;;2.40;90.30;;;;;;10258593;28;20244;-83
2020/12/27 00:33:29;;;;;;;5.00;4.50;;;2.40;91.30;;;;;;10259991;28;20243;-83
2020/12/27 00:38:31;;;;;;;4.53;4.13;;;2.40;90.80;;;;;;10285912;28;20247;-82
2020/12/27 00:43:33;;;;;;;4.80;4.30;;;2.40;91.50;;;;;;10262543;28;20194;-82
2020/12/27 00:48:35;;;;;;;4.50;4.10;;;2.40;90.50;;;;;;10246410;28;20228;-82
2020/12/27 00:53:37;;;;;;;4.77;4.37;;;2.50;90.40;;;;;;10273692;28;20234;-82
2020/12/27 00:58:40;;;;;;;4.60;4.20;;;2.40;89.80;;;;;;10257273;28;20615;-81
2020/12/27 01:03:41;;;;;;;5.10;4.60;;;2.40;90.60;;;;;;10256164;28;20231;-81
2020/12/27 01:08:54;;;;;;;5.00;4.50;;;2.40;90.90;;;;;;10256339;28;20224;-83
2020/12/27 01:13:56;;;;;;;6.27;4.40;;;2.30;90.60;;;;;;10255009;28;20230;-84
2020/12/27 01:18:57;;;;;;;5.13;4.63;;;2.30;90.40;;;;;;10270251;28;20584;-83
2020/12/27 01:24:09;;;;;;;5.20;4.50;;;2.30;90.90;;;;;;10254759;28;20232;-83
2020/12/27 01:29:15;;;;;;;4.80;4.40;;;2.20;91.00;;;;;;10252160;28;20243;-83
2020/12/27 01:34:26;;;;;;;5.13;4.53;;;2.20;90.80;;;;;;10269888;28;20223;-82
2020/12/27 01:39:30;;;;;;;5.20;4.57;;;2.20;90.80;;;;;;10253697;28;20224;-84
2020/12/27 01:44:32;;;;;;;5.20;4.73;;;2.20;91.20;;;;;;10264941;28;20207;-82
2020/12/27 01:49:36;;;;;;;5.07;4.57;;;2.20;91.50;;;;;;10214535;28;20728;-83
2020/12/27 01:54:40;;;;;;;5.00;4.60;;;2.20;91.30;;;;;;10251565;29;20212;-83
2020/12/27 01:59:52;;;;;;;4.90;4.40;;;2.20;91.20;;;;;;10217404;29;20364;-83
2020/12/27 02:05:12;;;;;;;4.80;4.40;;;2.20;91.50;;;;;;10249055;29;20207;-83
2020/12/27 02:10:18;;;;;;;4.70;4.30;;;2.20;91.50;;;;;;10233612;29;20220;-84
2020/12/27 02:15:21;;;;;;;5.40;4.90;;;2.10;91.30;;;;;;10252321;28;20272;-82
2020/12/27 02:20:52;;;;;;;4.70;4.27;;;2.10;91.60;;;;;;10213263;28;20770;-83
2020/12/27 02:25:58;;;;;;;4.37;3.97;;;2.10;91.90;;;;;;10285747;28;20247;-82
2020/12/27 02:31:08;;;;;;;5.30;4.80;;;2.20;91.20;;;;;;10274664;28;20756;-82
2020/12/27 02:36:21;;;;;;;6.97;4.53;;;2.10;90.60;;;;;;10274256;28;20223;-82
2020/12/27 02:41:26;;;;;;;5.47;4.20;;;2.10;90.50;;;;;;10266800;28;20751;-83
2020/12/27 02:46:57;;;;;;;5.20;4.67;;;2.00;90.10;;;;;;10270868;28;20703;-82
2020/12/27 02:52:31;;;;;;;4.90;4.40;;;1.90;90.50;;;;;;10284062;28;20621;-83
2020/12/27 02:57:34;;;;;;;4.97;4.47;;;1.90;90.30;;;;;;10271207;28;20601;-83
2020/12/27 03:02:36;;;;;;;5.20;4.80;;;1.80;90.20;;;;;;10287675;28;20200;-82
2020/12/27 03:07:45;;;;;;;5.73;4.40;;;1.70;90.00;;;;;;10266215;28;20226;-83
2020/12/27 03:13:00;;;;;;;6.10;5.20;;;1.60;90.20;;;;;;10266609;28;20616;-83
2020/12/27 03:18:02;;;;;;;6.87;5.07;;;1.60;90.40;;;;;;10266981;28;20318;-83
2020/12/27 03:23:33;;;;;;;5.30;4.80;;;1.60;90.20;;;;;;10218170;28;20227;-81
2020/12/27 03:28:45;;;;;;;4.77;4.40;;;1.60;90.30;;;;;;10266535;28;20259;-82
2020/12/27 03:33:47;;;;;;;5.10;4.70;;;1.70;90.80;;;;;;10268542;28;20215;-83
2020/12/27 03:38:52;;;;;;;5.30;4.83;;;1.80;90.90;;;;;;10282695;28;20310;-83
2020/12/27 03:44:21;;;;;;;5.20;4.70;;;1.80;90.70;;;;;;10269116;28;20223;-82
2020/12/27 03:49:41;;;;;;;5.30;4.90;;;1.90;90.50;;;;;;10292224;28;20278;-82
2020/12/27 03:55:03;;;;;;;4.70;4.30;;;2.00;90.10;;;;;;10300578;28;20234;-84
2020/12/27 04:00:24;;;;;;;5.40;4.90;;;2.00;89.80;;;;;;10299110;28;20218;-82
2020/12/27 04:05:37;;;;;;;5.50;4.90;;;1.90;87.20;;;;;;10268984;28;20259;-83
2020/12/27 04:10:38;;;;;;;5.57;5.07;;;1.80;88.50;;;;;;10282284;28;20220;-83
2020/12/27 04:15:41;;;;;;;5.10;4.70;;;1.70;88.40;;;;;;10278492;28;20294;-84
2020/12/27 04:20:53;;;;;;;5.20;4.70;;;1.70;90.90;;;;;;10262709;28;20270;-83
2020/12/27 04:25:55;;;;;;;6.40;5.40;;;1.70;90.40;;;;;;10262749;28;20224;-83
2020/12/27 04:30:57;;;;;;;4.70;4.30;;;1.80;89.70;;;;;;10291477;23;20298;-81
2020/12/27 04:36:10;;;;;;;5.87;4.93;;;1.80;89.40;;;;;;10261788;28;20219;-81
2020/12/27 04:41:13;;;;;;;4.47;4.10;;;1.90;90.20;;;;;;10261325;28;20230;-81
2020/12/27 04:46:18;;;;;;;5.20;4.80;;;1.90;90.30;;;;;;10276977;28;20195;-81
2020/12/27 04:51:27;;;;;;;4.97;4.57;;;2.00;89.70;;;;;;10261576;28;20634;-81
2020/12/27 04:56:47;;;;;;;6.10;5.57;;;2.00;89.40;;;;;;10260663;28;20228;-81
2020/12/27 05:01:56;;;;;;;5.17;4.67;;;1.90;89.10;;;;;;10276434;28;20200;-81
2020/12/27 05:07:20;;;;;;;6.23;5.63;;;1.90;88.50;;;;;;10292940;28;20303;-80
2020/12/27 05:12:40;;;;;;;5.97;5.37;;;1.90;89.10;;;;;;10276456;28;20215;-81
2020/12/27 05:17:44;;;;;;;5.63;5.13;;;1.80;89.80;;;;;;10260264;28;20227;-81
2020/12/27 05:22:48;;;;;;;6.37;5.77;;;1.80;89.50;;;;;;10260112;28;20208;-81
2020/12/27 05:28:01;;;;;;;6.27;5.10;;;1.90;89.80;;;;;;10275352;28;20231;-81
2020/12/27 05:33:37;;;;;;;5.87;5.47;;;1.90;89.70;;;;;;10279708;28;20204;-81
2020/12/27 05:39:03;;;;;;;6.37;5.83;;;1.90;90.60;;;;;;10266428;28;20286;-81
2020/12/27 05:44:32;;;;;;;5.53;5.03;;;1.90;90.00;;;;;;10260428;28;20196;-81
2020/12/27 05:49:38;;;;;;;5.13;4.73;;;1.90;89.70;;;;;;10276048;28;20303;-81
2020/12/27 05:54:47;;;;;;;7.30;4.40;;;1.90;89.30;;;;;;10259760;28;20228;-81
2020/12/27 05:59:54;;;;;;;5.53;5.03;;;1.90;90.20;;;;;;10259804;28;20228;-81
2020/12/27 06:05:16;;;;;;;5.47;4.97;;;1.90;90.30;;;;;;10275627;28;20282;-82
2020/12/27 06:10:20;;;;;;;5.90;4.80;;;1.90;89.60;;;;;;10260186;28;20212;-81
2020/12/27 06:15:46;;;;;;;5.37;4.83;;;1.80;90.10;;;;;;10259160;28;20230;-81
2020/12/27 06:21:28;;;;;;;6.13;4.87;;;1.90;90.20;;;;;;10291940;28;20235;-81
2020/12/27 06:26:32;;;;;;;5.90;4.77;;;1.90;90.10;;;;;;10275589;28;20206;-81
2020/12/27 06:31:50;;;;;;;6.27;5.10;;;2.00;90.30;;;;;;10259362;28;20497;-81
2020/12/27 06:37:15;;;;;;;5.37;4.87;;;2.00;91.10;;;;;;10259717;28;20234;-82
2020/12/27 06:42:36;;;;;;;4.93;4.53;;;2.10;90.30;;;;;;10275240;28;20228;-82
2020/12/27 06:47:49;;;;;;;5.33;4.83;;;2.10;90.90;;;;;;10275962;28;20599;-82
2020/12/27 06:53:00;;;;;;;7.20;5.23;;;2.20;90.60;;;;;;10274557;28;20275;-82
2020/12/27 06:58:25;;;;;;;6.17;4.73;;;2.10;90.90;;;;;;10273690;28;20223;-82
2020/12/27 07:03:42;;;;;;;6.50;4.87;;;2.20;91.30;;;;;;10257812;28;20206;-82
2020/12/27 07:08:45;;;;;;;5.23;4.73;;;2.20;91.10;;;;;;10291340;28;20216;-82
2020/12/27 07:13:48;;;;;;;5.37;4.87;;;2.30;90.00;;;;;;10256533;28;20196;-82
2020/12/27 07:18:50;;;;;;;6.13;5.50;;;2.30;90.10;;;;;;10272715;28;20246;-81
2020/12/27 07:24:19;;;;;;;5.23;4.70;;;2.30;90.60;;;;;;10290626;28;20735;-81
2020/12/27 07:29:23;;;;;;;4.90;4.50;;;2.20;90.00;;;;;;10279461;28;20223;-81
2020/12/27 07:34:27;;;;;;;5.50;5.00;;;2.10;90.00;;;;;;10263253;28;20239;-81
2020/12/27 07:39:52;;;;;;;5.30;4.90;;;2.10;90.30;;;;;;10280527;28;20255;-82
2020/12/27 07:44:55;;;;;;;5.03;4.63;;;2.00;90.10;;;;;;10275382;28;20572;-81
2020/12/27 07:50:08;;;;;;;5.30;4.90;;;2.00;90.00;;;;;;10263645;28;20227;-81
2020/12/27 07:55:11;;;;;;;5.23;4.80;;;2.10;90.50;;;;;;10263723;28;20239;-82
2020/12/27 08:00:13;;;;;;;5.40;4.90;;;2.10;90.20;;;;;;10264004;28;20219;-82
2020/12/27 08:05:14;;;;;;;5.57;5.03;;;2.20;90.40;;;;;;10280360;28;20251;-82
2020/12/27 08:10:19;;;;;;;5.03;4.60;;;2.20;90.80;;;;;;10298106;28;20215;-82
2020/12/27 08:15:22;;;;;;;4.90;4.50;;;2.40;90.50;;;;;;10286774;28;20215;-82
2020/12/27 08:20:24;;;;;;;6.83;5.50;;;2.50;90.70;;;;;;10302078;28;20657;-82
2020/12/27 08:25:28;;;;;;;5.03;4.63;;;2.60;91.10;;;;;;10336022;28;20183;-82
2020/12/27 08:30:30;;;;;;;4.90;4.50;;;2.70;90.40;;;;;;10301247;28;20239;-82
2020/12/27 08:35:31;;;;;;;4.80;4.23;;;2.80;90.70;;;;;;10317683;28;20219;-82
2020/12/27 08:40:39;;;;;;;4.40;4.00;;;2.90;89.50;;;;;;10302374;28;20243;-81
2020/12/27 08:45:44;;;;;;;4.77;4.37;;;3.00;90.00;;;;;;10292481;28;20200;-82
2020/12/27 08:50:49;;;;;;;6.03;5.43;;;3.20;90.60;;;;;;10277352;28;20271;-82
2020/12/27 08:55:52;;;;;;;8.73;6.30;;;3.20;90.30;;;;;;10276396;28;20251;-82
2020/12/27 09:00:53;;;;;;;6.77;5.60;;;3.30;89.00;;;;;;10260929;28;20215;-81
2020/12/27 09:05:55;;;;;;;5.67;5.10;;;3.30;89.10;;;;;;10277396;28;20640;-82
2020/12/27 09:11:03;;;;;;;5.37;4.77;;;3.40;89.00;;;;;;10261486;28;20739;-82
2020/12/27 09:16:05;;;;;;;4.50;4.20;;;3.40;86.80;;;;;;10259908;28;20226;-82
2020/12/27 09:21:07;;;;;;;4.80;4.30;;;3.50;85.40;;;;;;10275901;28;20216;-82
2020/12/27 09:26:12;;;;;;;4.20;3.80;;;3.40;84.50;;;;;;10275844;28;20607;-82
2020/12/27 09:31:14;;;;;;;4.97;4.57;;;3.40;84.90;;;;;;10275880;28;20232;-82
2020/12/27 09:36:19;;;;;;;4.67;4.13;;;3.40;86.50;;;;;;10260522;28;20223;-82
2020/12/27 09:41:23;;;;;;;6.37;5.77;;;3.40;86.30;;;;;;10260009;28;20220;-82
2020/12/27 09:46:43;;;;;;;6.50;5.97;;;3.50;86.20;;;;;;10274371;28;20200;-81
2020/12/27 09:51:45;;;;;;;5.57;4.97;;;3.60;85.60;;;;;;10290774;28;20220;-81
2020/12/27 09:56:47;;;;;;;5.13;4.13;;;3.60;84.90;;;;;;10258021;28;20224;-82
2020/12/27 10:01:49;;;;;;;5.37;4.90;;;3.60;85.50;;;;;;10257594;28;20370;-82
2020/12/27 10:06:50;;;;;;;4.90;4.50;;;3.70;86.20;;;;;;10273576;28;20652;-82
2020/12/27 10:11:53;;;;;;;4.73;4.30;;;3.70;85.60;;;;;;10291023;28;20314;-82
2020/12/27 10:16:56;;;;;;;4.97;4.57;;;3.80;84.10;;;;;;10272777;28;20274;-82
2020/12/27 10:21:58;;;;;;;4.97;4.57;;;3.80;85.20;;;;;;10273863;28;20227;-82
2020/12/27 10:27:02;;;;;;;6.37;5.77;;;3.80;83.90;;;;;;10256347;28;20195;-82
2020/12/27 10:32:06;;;;;;;6.80;6.20;;;3.90;83.10;;;;;;10323442;23;20240;-83
2020/12/27 10:37:08;;;;;;;6.37;5.77;;;3.90;83.20;;;;;;10262968;28;20252;-83
2020/12/27 10:42:10;;;;;;;5.77;5.17;;;3.80;82.20;;;;;;10303421;28;20215;-83
2020/12/27 10:47:12;;;;;;;12.73;10.47;;;3.80;81.30;;;;;;10283267;28;20247;-84
2020/12/27 10:52:13;;;;;;;29.37;20.20;;;3.70;81.40;;;;;;10282830;28;20310;-83
2020/12/27 10:57:16;;;;;;;7.30;6.60;;;3.70;83.80;;;;;;10266179;28;20227;-84
2020/12/27 11:02:17;;;;;;;14.17;12.97;;;3.90;84.90;;;;;;10269445;28;20791;-84
2020/12/27 11:07:19;;;;;;;9.10;8.20;;;4.10;83.20;;;;;;10286161;28;20206;-84
2020/12/27 11:12:21;;;;;;;6.93;6.20;;;4.10;83.50;;;;;;10273400;28;20204;-84
2020/12/27 11:17:23;;;;;;;6.40;5.90;;;4.30;83.60;;;;;;10273163;28;20259;-83
2020/12/27 11:22:25;;;;;;;6.37;5.77;;;4.40;84.80;;;;;;10274498;28;20211;-84
2020/12/27 11:27:28;;;;;;;6.57;6.07;;;4.50;84.40;;;;;;10272651;28;20191;-83
2020/12/27 11:32:29;;;;;;;7.23;6.60;;;4.50;83.10;;;;;;10285421;28;20602;-84
2020/12/27 11:37:31;;;;;;;7.00;6.40;;;4.40;82.40;;;;;;10305875;28;20219;-83
2020/12/27 11:42:34;;;;;;;7.27;6.57;;;4.20;83.90;;;;;;10285686;28;20211;-81
2020/12/27 11:47:37;;;;;;;9.13;8.17;;;4.00;84.80;;;;;;10288399;28;20212;-81
2020/12/27 11:52:39;;;;;;;8.37;7.67;;;4.00;84.80;;;;;;10284528;28;20485;-83
2020/12/27 11:57:41;;;;;;;10.50;8.30;;;3.80;86.10;;;;;;10267735;28;20230;-83
2020/12/27 12:02:43;;;;;;;7.80;7.10;;;3.70;87.00;;;;;;10267353;28;20223;-82
2020/12/27 12:07:44;;;;;;;8.00;7.20;;;3.80;87.90;;;;;;10282307;28;20212;-82
2020/12/27 12:12:47;;;;;;;8.80;8.00;;;3.80;88.60;;;;;;10279716;28;20196;-82
2020/12/27 12:17:49;;;;;;;7.87;7.07;;;3.90;87.50;;;;;;10280497;28;20652;-82
2020/12/27 12:22:50;;;;;;;8.50;7.70;;;3.90;88.30;;;;;;10281544;28;20223;-83
2020/12/27 12:27:53;;;;;;;9.60;8.70;;;3.90;89.50;;;;;;10273447;28;20310;-81
2020/12/27 12:32:54;;;;;;;8.30;7.50;;;4.10;87.80;;;;;;10298305;28;20279;-82
2020/12/27 12:37:58;;;;;;;9.10;8.20;;;4.20;87.90;;;;;;10300901;28;20290;-81
2020/12/27 12:43:00;;;;;;;9.83;8.93;;;4.20;88.10;;;;;;10309400;28;20278;-81
2020/12/27 12:48:02;;;;;;;6.77;6.17;;;4.20;88.30;;;;;;10290295;28;20227;-81
2020/12/27 12:53:04;;;;;;;6.90;6.30;;;4.20;87.50;;;;;;10295266;28;20208;-80
2020/12/27 12:58:08;;;;;;;6.67;5.77;;;4.20;88.30;;;;;;10313783;28;20241;-79
2020/12/27 13:03:09;;;;;;;6.83;6.13;;;4.30;89.10;;;;;;10304104;28;20284;-81
2020/12/27 13:08:11;;;;;;;6.70;6.00;;;4.40;90.40;;;;;;10328615;28;20225;-81
2020/12/27 13:13:13;;;;;;;6.73;6.10;;;4.50;90.40;;;;;;10331535;28;20546;-83
2020/12/27 13:18:15;;;;;;;6.00;5.50;;;4.60;90.30;;;;;;10335528;28;20223;-82
2020/12/27 13:23:16;;;;;;;7.13;5.60;;;4.70;89.70;;;;;;10294033;28;20200;-82
2020/12/27 13:28:19;;;;;;;5.63;5.13;;;4.80;90.00;;;;;;10301876;28;20295;-82
2020/12/27 13:33:21;;;;;;;4.87;4.57;;;4.90;87.60;;;;;;10325844;28;20742;-82
2020/12/27 13:38:22;;;;;;;5.47;4.97;;;4.90;89.50;;;;;;10319022;28;20250;-81
2020/12/27 13:43:25;;;;;;;5.20;4.80;;;4.90;89.10;;;;;;10282317;28;20210;-84
2020/12/27 13:48:26;;;;;;;4.93;4.53;;;4.80;89.10;;;;;;10302884;28;20262;-83
2020/12/27 13:53:28;;;;;;;5.50;5.10;;;4.80;89.40;;;;;;10280260;28;20203;-82
2020/12/27 13:58:31;;;;;;;6.17;5.67;;;4.80;90.20;;;;;;10278705;28;20906;-81
2020/12/27 14:03:33;;;;;;;6.07;5.67;;;4.90;89.60;;;;;;10290843;28;20609;-83
2020/12/27 14:08:34;;;;;;;15.40;13.73;;;5.00;90.20;;;;;;10293644;28;20219;-82
2020/12/27 14:13:37;;;;;;;6.90;6.20;;;5.00;89.30;;;;;;10283251;28;20227;-82
2020/12/27 14:18:38;;;;;;;6.40;5.80;;;5.10;89.10;;;;;;10298832;28;20227;-84
2020/12/27 14:23:40;;;;;;;5.77;5.27;;;5.10;90.10;;;;;;10317225;28;20219;-82
2020/12/27 14:28:43;;;;;;;5.53;5.13;;;5.10;90.00;;;;;;10299338;28;20580;-82
2020/12/27 14:33:44;;;;;;;5.03;4.60;;;5.10;90.10;;;;;;10319142;28;20191;-82
2020/12/27 14:38:46;;;;;;;6.20;5.20;;;5.10;90.20;;;;;;10310934;28;20219;-81
2020/12/27 14:43:49;;;;;;;4.43;4.03;;;5.10;88.50;;;;;;10331363;28;20206;-83
2020/12/27 14:48:51;;;;;;;5.10;4.70;;;5.00;86.10;;;;;;10298497;28;20216;-80
2020/12/27 14:53:53;;;;;;;5.23;4.70;;;4.80;85.90;;;;;;10303610;28;20322;-80
2020/12/27 14:58:55;;;;;;;5.10;4.70;;;4.70;86.60;;;;;;10298326;28;20215;-80
2020/12/27 15:03:57;;;;;;;4.60;4.20;;;4.70;86.20;;;;;;10278932;28;20684;-82
2020/12/27 15:08:58;;;;;;;5.20;4.20;;;4.70;87.50;;;;;;10330629;28;20650;-81
2020/12/27 15:14:01;;;;;;;4.63;4.23;;;4.70;86.00;;;;;;10330022;28;20202;-84
2020/12/27 15:19:03;;;;;;;4.57;4.17;;;4.80;86.80;;;;;;10339901;28;20227;-83
2020/12/27 15:24:04;;;;;;;4.63;4.23;;;4.80;85.90;;;;;;10353300;28;20213;-82
2020/12/27 15:29:07;;;;;;;4.00;3.70;;;4.80;86.60;;;;;;10339622;28;20270;-83
2020/12/27 15:34:08;;;;;;;4.87;4.47;;;4.70;84.10;;;;;;10346608;28;20231;-83
2020/12/27 15:39:10;;;;;;;4.10;3.80;;;4.60;83.50;;;;;;10359462;28;20250;-83
2020/12/27 15:44:12;;;;;;;4.20;3.80;;;4.60;81.90;;;;;;10336943;28;20253;-81
2020/12/27 15:49:15;;;;;;;5.73;5.20;;;4.50;81.50;;;;;;10334295;28;20219;-80
2020/12/27 15:54:16;;;;;;;4.50;4.10;;;4.40;80.70;;;;;;10307294;28;20199;-80
2020/12/27 15:59:19;;;;;;;4.67;4.27;;;4.30;81.10;;;;;;10308049;28;20230;-82
2020/12/27 16:04:21;;;;;;;4.67;4.27;;;4.10;80.30;;;;;;10321520;28;20215;-83
2020/12/27 16:09:22;;;;;;;4.20;3.80;;;4.10;80.80;;;;;;10326020;28;20585;-80
2020/12/27 16:14:25;;;;;;;5.23;4.70;;;4.00;80.10;;;;;;10331786;28;20210;-82
2020/12/27 16:19:26;;;;;;;4.70;4.30;;;4.00;80.40;;;;;;10303198;28;20236;-84
2020/12/27 16:24:28;;;;;;;4.60;4.20;;;4.00;80.60;;;;;;10285712;28;20744;-83
2020/12/27 16:29:31;;;;;;;5.13;4.70;;;4.00;80.10;;;;;;10333500;28;20242;-85
2020/12/27 16:34:32;;;;;;;5.27;4.87;;;4.20;80.00;;;;;;10291329;28;20260;-84
2020/12/27 16:39:34;;;;;;;5.03;4.53;;;4.30;79.80;;;;;;10276371;28;20247;-85
2020/12/27 16:44:36;;;;;;;4.83;4.43;;;4.40;79.50;;;;;;10319477;28;20227;-83
2020/12/27 16:49:40;;;;;;;4.90;4.40;;;4.40;79.30;;;;;;10303505;28;20211;-82
2020/12/27 16:54:42;;;;;;;4.80;4.40;;;4.50;80.30;;;;;;10287930;28;20652;-81
2020/12/27 16:59:44;;;;;;;5.87;5.27;;;4.40;79.10;;;;;;10310049;28;20219;-82
2020/12/27 17:04:46;;;;;;;4.80;4.40;;;4.30;77.90;;;;;;10308579;28;20199;-84
2020/12/27 17:09:47;;;;;;;5.30;4.73;;;4.40;78.30;;;;;;10328045;28;20238;-84
2020/12/27 17:14:50;;;;;;;6.50;4.43;;;4.40;77.30;;;;;;10303254;28;20258;-83
2020/12/27 17:19:52;;;;;;;5.00;4.60;;;4.50;77.90;;;;;;10316270;28;20223;-84
2020/12/27 17:24:53;;;;;;;4.03;3.73;;;4.50;76.60;;;;;;10281606;28;20215;-84
2020/12/27 17:29:58;;;;;;;4.50;4.20;;;4.60;76.30;;;;;;10299995;28;21102;-83
2020/12/27 17:34:59;;;;;;;5.03;4.47;;;4.60;75.50;;;;;;10329043;28;20319;-85
2020/12/27 17:40:01;;;;;;;4.83;4.40;;;4.60;75.70;;;;;;10328923;28;20234;-85
2020/12/27 17:45:04;;;;;;;5.10;4.63;;;4.70;75.40;;;;;;10317230;28;20571;-84
2020/12/27 17:50:06;;;;;;;3.90;3.60;;;4.70;75.50;;;;;;10315945;28;20263;-82
2020/12/27 17:55:08;;;;;;;4.30;4.00;;;4.80;74.90;;;;;;10296796;28;20248;-84
2020/12/27 18:00:13;;;;;;;3.33;3.07;;;4.90;74.40;;;;;;10289508;28;20218;-84
2020/12/27 18:05:17;;;;;;;3.53;3.23;;;5.00;75.00;;;;;;10387166;28;20655;-84
2020/12/27 18:10:18;;;;;;;3.87;3.43;;;5.10;74.00;;;;;;10348249;28;20218;-84
2020/12/27 18:15:21;;;;;;;3.43;3.13;;;5.20;74.20;;;;;;10337814;28;20220;-84
2020/12/27 18:20:25;;;;;;;3.73;3.37;;;5.40;73.20;;;;;;10283563;28;20211;-84
2020/12/27 18:25:27;;;;;;;3.30;3.00;;;5.40;72.80;;;;;;10271143;28;20205;-83
2020/12/27 18:30:29;;;;;;;3.20;2.90;;;5.50;72.20;;;;;;10269960;28;20314;-84
2020/12/27 18:35:31;;;;;;;2.60;2.40;;;5.50;72.10;;;;;;10284620;28;20223;-83
2020/12/27 18:40:33;;;;;;;3.60;3.20;;;5.60;71.70;;;;;;10312645;28;20232;-83
2020/12/27 18:45:36;;;;;;;2.87;2.67;;;5.70;71.30;;;;;;10322116;28;20200;-82
2020/12/27 18:50:39;;;;;;;3.23;2.93;;;5.80;72.00;;;;;;10340192;28;20222;-83
2020/12/27 18:55:43;;;;;;;3.10;2.90;;;5.90;72.70;;;;;;10368726;28;20229;-84
2020/12/27 19:00:48;;;;;;;3.03;2.73;;;6.00;72.80;;;;;;10343555;28;20211;-81
2020/12/27 19:05:50;;;;;;;4.60;3.60;;;6.10;72.90;;;;;;10280746;28;20203;-82
2020/12/27 19:10:53;;;;;;;2.43;2.23;;;6.20;72.40;;;;;;10305753;28;20226;-83
2020/12/27 19:15:58;;;;;;;3.63;3.33;;;6.30;71.80;;;;;;10290161;28;20246;-82
2020/12/27 19:20:59;;;;;;;3.97;3.63;;;6.40;72.70;;;;;;10261518;28;20298;-84
2020/12/27 19:26:01;;;;;;;3.63;3.33;;;6.50;73.10;;;;;;10270749;28;20283;-83
2020/12/27 19:31:04;;;;;;;3.00;2.80;;;6.50;73.80;;;;;;10266267;28;20243;-82
2020/12/27 19:36:08;;;;;;;3.07;2.87;;;6.60;73.20;;;;;;10266290;28;20228;-83
2020/12/27 19:41:12;;;;;;;3.80;3.50;;;6.50;72.10;;;;;;10267793;28;20616;-82
2020/12/27 19:46:18;;;;;;;3.30;3.00;;;6.50;73.80;;;;;;10285560;28;20259;-84
2020/12/27 19:51:20;;;;;;;3.40;3.10;;;6.50;74.20;;;;;;10290690;28;20224;-84
2020/12/27 19:56:22;;;;;;;3.50;3.20;;;6.60;74.60;;;;;;10268111;28;20224;-84
2020/12/27 20:01:25;;;;;;;3.43;3.10;;;6.60;73.80;;;;;;10284459;28;20690;-83
2020/12/27 20:06:27;;;;;;;3.03;2.83;;;6.70;74.30;;;;;;10266823;28;20264;-83
2020/12/27 20:11:28;;;;;;;2.77;2.57;;;6.70;73.90;;;;;;10274231;28;20220;-84
2020/12/27 20:16:34;;;;;;;3.17;2.87;;;6.70;73.30;;;;;;10283325;28;20222;-84
2020/12/27 20:21:36;;;;;;;2.87;2.57;;;6.70;73.60;;;;;;10266885;28;20247;-83
2020/12/27 20:26:38;;;;;;;3.23;2.93;;;6.80;72.80;;;;;;10268395;28;20595;-84
2020/12/27 20:31:40;;;;;;;3.67;3.37;;;6.80;75.00;;;;;;10267670;28;20599;-84
2020/12/27 20:36:42;;;;;;;3.63;3.30;;;6.80;75.40;;;;;;10288034;28;20299;-82
2020/12/27 20:41:43;;;;;;;3.67;3.37;;;6.90;76.60;;;;;;10306322;28;20249;-83
2020/12/27 20:46:46;;;;;;;3.00;2.80;;;6.80;78.90;;;;;;10278851;28;20665;-83
2020/12/27 20:51:48;;;;;;;4.07;3.67;;;6.80;81.30;;;;;;10301455;28;20338;-81
2020/12/27 20:56:50;;;;;;;3.57;3.27;;;6.80;84.20;;;;;;10305507;28;20223;-80
2020/12/27 21:01:53;;;;;;;3.30;3.10;;;6.70;87.50;;;;;;10281423;28;20235;-80
2020/12/27 21:06:55;;;;;;;3.70;3.40;;;6.60;91.00;;;;;;10281917;28;20695;-80
2020/12/27 21:11:58;;;;;;;3.70;3.40;;;6.40;92.30;;;;;;10281264;28;20223;-80
2020/12/27 21:17:02;;;;;;;3.47;3.17;;;6.10;93.20;;;;;;10286332;28;20231;-83
2020/12/27 21:22:03;;;;;;;3.67;3.17;;;6.00;94.40;;;;;;10287239;28;20295;-81
2020/12/27 21:27:05;;;;;;;3.57;3.27;;;5.90;95.80;;;;;;10305716;28;20192;-82
2020/12/27 21:32:08;;;;;;;3.47;3.27;;;5.80;96.10;;;;;;10282592;28;20266;-81
2020/12/27 21:37:11;;;;;;;3.33;2.30;;;5.70;96.80;;;;;;10313358;28;20755;-82
2020/12/27 21:42:12;;;;;;;1.70;1.60;;;5.70;97.30;;;;;;10330307;28;20769;-82
2020/12/27 21:47:15;;;;;;;1.70;1.60;;;5.80;97.60;;;;;;10328936;28;20199;-80
2020/12/27 21:52:17;;;;;;;1.70;1.60;;;6.00;97.50;;;;;;10312652;28;20220;-80
2020/12/27 21:57:19;;;;;;;1.73;1.63;;;6.20;96.80;;;;;;10294026;28;20236;-81
2020/12/27 22:02:21;;;;;;;1.80;1.70;;;6.40;96.60;;;;;;10276344;28;20276;-82
2020/12/27 22:07:24;;;;;;;1.50;1.40;;;6.70;96.30;;;;;;10291577;28;20227;-82
2020/12/27 22:12:25;;;;;;;1.43;1.23;;;6.90;95.90;;;;;;10275170;28;20207;-81
2020/12/27 22:17:32;;;;;;;1.60;1.50;;;7.00;95.90;;;;;;10274834;28;20330;-83
2020/12/27 22:22:34;;;;;;;1.40;1.30;;;7.20;96.00;;;;;;10278025;28;20207;-83
2020/12/27 22:27:35;;;;;;;1.50;1.40;;;7.30;96.20;;;;;;10324335;28;20200;-81
2020/12/27 22:32:38;;;;;;;1.50;1.40;;;7.40;96.50;;;;;;10274828;23;20239;-80
2020/12/27 22:37:39;;;;;;;1.60;1.50;;;7.50;96.50;;;;;;10266291;28;20234;-80
2020/12/27 22:42:41;;;;;;;1.20;1.20;;;7.50;96.60;;;;;;10266778;28;20227;-80
2020/12/27 22:47:45;;;;;;;1.40;1.30;;;7.50;97.20;;;;;;10289982;28;20218;-78
2020/12/27 22:52:47;;;;;;;1.10;1.10;;;7.50;97.30;;;;;;10323114;28;20243;-78
2020/12/27 22:57:48;;;;;;;1.37;1.27;;;7.50;97.70;;;;;;10328524;28;20227;-78
2020/12/27 23:02:52;;;;;;;1.20;1.20;;;7.50;98.00;;;;;;10330050;28;20563;-77
2020/12/27 23:07:53;;;;;;;1.10;1.10;;;7.60;98.00;;;;;;10311829;28;20199;-78
2020/12/27 23:12:55;;;;;;;1.27;1.17;;;7.60;98.20;;;;;;10312483;28;20640;-78
2020/12/27 23:17:57;;;;;;;3.13;1.10;;;7.60;98.10;;;;;;10312057;28;20230;-78
2020/12/27 23:23:00;;;;;;;0.93;0.93;;;7.50;97.70;;;;;;10312437;28;20233;-78
2020/12/27 23:28:02;;;;;;;1.10;1.10;;;7.50;97.60;;;;;;10296287;28;20207;-78
2020/12/27 23:33:08;;;;;;;1.20;1.20;;;7.50;97.60;;;;;;10330648;28;20298;-78
2020/12/27 23:38:09;;;;;;;1.00;1.00;;;7.50;97.30;;;;;;10317494;28;20230;-78
2020/12/27 23:43:11;;;;;;;1.30;1.20;;;7.50;97.60;;;;;;10316780;28;20234;-78
2020/12/27 23:48:13;;;;;;;1.00;1.00;;;7.50;97.20;;;;;;10335453;28;20211;-78
2020/12/27 23:53:15;;;;;;;0.90;0.90;;;7.50;96.90;;;;;;10316341;28;20196;-78
2020/12/27 23:58:17;;;;;;;0.90;0.90;;;7.50;97.30;;;;;;10316432;28;20256;-78
